Tiempo atmosférico en la estación meteorológica de Alicante/Alacant Aeropuerto, Alacant/Alicante (43 m.)



Fecha
DESCASC
Temp. máxima en grados centígrados (hora)
DESCASC
Temp. mínima en grados centígrados (hora)
DESCASC
Temp. media en grados centígrados
DESCASC
Racha de viento máxima en m/sg (hora)
DESCASC
Velocidad máxima media en intervalos de 10 minutos(hora)
DESCASC
Precipitaciones diarias en mm
DESCASC
Precipitaciones de 00:00 a 06:00 en mm
DESCASC
Precipitaciones de 06:00 a 12:00 en mm
DESCASC
Precipitaciones de 12:00 a 18:00 en mm
DESCASC
Precipitaciones de 18:00 a 24:00 en mm
DESCASC

Gráficas

Temp. máximas Temp. mínimas Temp. medias Precipitaciones Rachas de viento máximas Velocidades máximas media en intervalos de 10 minutos

Datos horarios

Fecha y hora oficial Temperatura (ºC) Velocidad del viento (km/h) Dirección del viento Racha (km/h) Dirección de racha Precipitación (mm) Presión (hPa) Tendencia (hPa) Humedad (%)
2020-11-23 23:00:00 10.3 9 Noroeste 13 Noroeste 0 1024 -0.1 85
2020-11-23 22:00:00 10.4 8 Noroeste -- -- 0 1024.2 0.3 82
2020-11-23 21:00:00 10.7 8 Noroeste -- -- 0 1024.3 0.8 81
2020-11-23 20:00:00 10.7 7 Noroeste -- -- 0 1024.1 0.8 80
2020-11-23 19:00:00 12.7 0 Calma 5 Noroeste 0 1023.9 0.7 73
2020-11-23 18:00:00 13.9 4 Sudeste 15 Sur 0 1023.5 0.1 68
2020-11-23 17:00:00 16.4 9 Sur 17 Sur 0 1023.3 -0.7 57
2020-11-23 16:00:00 17.4 8 Sur 18 Sur 0 1023.2 -1.6 53
2020-11-23 15:00:00 17.9 8 Sur 18 Sur 0 1023.4 -2.2 51
2020-11-23 14:00:00 17.8 9 Sur 17 Sudoeste 0 1024 -1.9 52
2020-11-23 13:00:00 17.3 9 Sudoeste 17 Sur 0 1024.8 -0.9 55
2020-11-23 12:00:00 16.9 6 Sur 13 Sur 0 1025.6 0.2 57
2020-11-23 11:00:00 16.3 8 Este 11 Este 0 1025.9 0.9 59
2020-11-23 10:00:00 13.4 11 Noroeste 17 Noroeste 0 1025.7 1.2 64
2020-11-23 09:00:00 9.5 9 Oeste 13 Noroeste 0 1025.4 1 78
2020-11-23 08:00:00 7.5 7 Oeste 9 Oeste 0 1025 0.7 87
2020-11-23 07:00:00 8.2 9 Noroeste 11 Noroeste 0 1024.5 0.2 86
2020-11-23 06:00:00 8 5 Oeste 8 Noroeste 0 1024.4 0 87
2020-11-23 05:00:00 8.4 4 Noroeste 11 Noroeste 0 1024.3 -- 85
2020-11-23 04:00:00 8.6 6 Noroeste 13 Noroeste 0 1024.3 -- 85
2020-11-23 03:00:00 8.7 11 Noroeste 13 Noroeste 0 1024.4 -- 85
2020-11-23 02:00:00 9 5 Noroeste 13 Noroeste 0 1024.4 -- 85
2020-11-23 01:00:00 9.6 9 Noroeste 9 Noroeste 0 1024.5 -- 82
2020-11-23 00:00:00 9.8 9 Noroeste 11 Noroeste 0 1024.6 -- 81
2020-11-22 23:00:00 9.8 -- -- -- -- 0 1024.7 -- 81
2020-11-22 22:00:00 10.5 7 Noroeste 9 Noroeste 0 1024.6 -- 78
2020-11-22 21:00:00 11.7 5 Noroeste -- -- 0 1024.5 -- 73
2020-11-22 20:00:00 11.6 3 Noroeste 9 Noroeste 0 1024.4 -- 72
2020-11-22 19:00:00 12.7 2 Noroeste -- -- 0 1023.9 -- 68
2020-11-22 18:00:00 13.3 6 Sudeste 15 Sudeste 0 1023.5 -- 65
2020-11-22 17:00:00 16.4 13 Este 21 Sudeste 0 1023 -- 57
2020-11-22 16:00:00 17.2 9 Sur 18 Sur 0 1022.9 -- 53
2020-11-22 15:00:00 18.1 10 Sur 26 Sudeste 0 1023.1 -- 47
2020-11-22 14:00:00 18.6 14 Sudeste 28 Este 0 1023.7 -- 38
2020-11-22 13:00:00 18 4 Oeste 17 Oeste 0 1024.5 -- 41
2020-11-22 12:00:00 16.8 8 Oeste 21 Oeste 0 1025.4 -- 50
2020-11-22 11:00:00 15.8 8 Oeste 21 Oeste 0 1025.7 -- 56
2020-11-22 10:00:00 13.7 13 Noroeste 18 Noroeste 0 1025.6 -- 62
2020-11-22 09:00:00 10.6 13 Noroeste 18 Noroeste 0 1025.3 -- 74
2020-11-22 08:00:00 9.1 9 Noroeste 11 Noroeste 0 1025.2 -- 79
2020-11-22 07:00:00 7.9 6 Oeste 11 Oeste 0 1025.1 -- 86
2020-11-22 06:00:00 6.6 8 Oeste 11 Noroeste 0 1024.8 -- 93
2020-11-22 05:00:00 7.6 6 Sudoeste 9 Sudoeste 0 1024.7 -- 91
2020-11-22 04:00:00 9.2 5 Sudoeste 15 Oeste 0 1024.6 -- 84
2020-11-22 03:00:00 9.7 9 Noroeste 15 Noroeste 0 1024.6 -- 85
2020-11-22 02:00:00 10.3 9 Oeste 11 Oeste 0 1025.1 -- 84
2020-11-22 01:00:00 11.6 4 Oeste 13 Norte 0 1025.7 -- 81
2020-11-22 00:00:00 13 10 Norte 13 Norte 0 1025.9 -- 77
2020-11-21 23:00:00 12.3 6 Este 18 Noroeste 0 1026 -- 80
2020-11-21 22:00:00 11.6 10 Noroeste 15 Oeste 0 1025.7 -- 81
2020-11-21 21:00:00 12.2 4 Noroeste 18 Este 0 1025.4 -- 78
2020-11-21 20:00:00 13.3 10 Este 15 Este 0 1025.3 -- 74
2020-11-21 19:00:00 15.4 11 Este 21 Este 0 1025.1 -- 68
2020-11-21 18:00:00 16.4 14 Nordeste 22 Este 0 1024.5 -- 64
2020-11-21 17:00:00 16.9 15 Este 22 Este 0 1024.3 -- 67
2020-11-21 16:00:00 17.6 14 Este 24 Este 0 1024.2 -- 61
2020-11-21 15:00:00 18.3 14 Este 28 Este 0 1024.1 -- 52
2020-11-21 14:00:00 18.5 13 Este 24 Este 0 1024.6 -- 47
2020-11-21 13:00:00 17.9 10 Este 22 Este 0 1024.8 -- 55
2020-11-21 12:00:00 19 8 Este 17 Este 0 1025.4 -- 49
2020-11-21 11:00:00 17.4 7 Nordeste 17 Norte 0 1025.4 -- 54
2020-11-21 10:00:00 15.9 4 Norte 15 Nordeste 0 1025.4 -- 60
2020-11-21 09:00:00 12.1 12 Noroeste 18 Noroeste 0 1025 -- 77
2020-11-21 08:00:00 10.6 16 Noroeste 22 Noroeste 0 1024.1 -- 84
2020-11-21 07:00:00 10.2 13 Noroeste 17 Noroeste 0 1023.6 -- 85
2020-11-21 06:00:00 -- 11 Noroeste 15 Noroeste 0 1023.5 -- --
2020-11-21 05:00:00 11.9 11 Noroeste 13 Noroeste 0 1023.3 -- 80
2020-11-21 04:00:00 12 7 Noroeste 13 Norte 0 1023.3 -- 80
2020-11-21 03:00:00 12.2 9 Norte 13 Norte 0 1023.3 -- 79
2020-11-21 02:00:00 12.3 9 Norte -- -- 0 1023.5 -- 78
2020-11-21 01:00:00 12.9 8 Noroeste 13 Norte 0 1023.8 -- 76
2020-11-21 00:00:00 12.2 5 Noroeste 13 Norte 0 1023.7 -- 77
2020-11-20 23:00:00 11.3 8 Norte 15 Norte 0 1023.8 -- 82
2020-11-20 22:00:00 11.8 8 Norte 11 Nordeste 0 1023.6 -- 82
2020-11-20 21:00:00 14 9 Nordeste 18 Nordeste 0 1023.4 -- 75
2020-11-20 20:00:00 13.2 14 Este 22 Este 0 1022.9 -- 78
2020-11-20 19:00:00 15.5 7 Este 21 Este 0 1022.5 -- 70
2020-11-20 18:00:00 16.6 15 Este 30 Este 0 1022.4 -- 65
2020-11-20 17:00:00 17.7 21 Nordeste 30 Este 0 1022.1 -- 66
2020-11-20 16:00:00 18.7 22 Este 30 Este 0 1021.9 -- 59
2020-11-20 15:00:00 18.8 21 Este 33 Este 0 1022.1 -- 64
2020-11-20 14:00:00 19 24 Este 37 Este 0 1023.1 -- 63
2020-11-20 13:00:00 18.7 25 Este 35 Este 0 1024 -- 68
2020-11-20 12:00:00 18.8 18 Este 28 Este 0 1024.6 -- 72
2020-11-20 11:00:00 18.8 14 Nordeste 18 Este 0 1024.3 -- 68
2020-11-20 10:00:00 17.3 4 Nordeste 8 Este 0 1024.2 -- 67
2020-11-20 09:00:00 14.1 2 Sur 5 Noroeste 0 1023.8 -- 75
2020-11-20 08:00:00 10.9 4 Noroeste -- -- 0 1023.9 -- 84
2020-11-20 07:00:00 10.9 8 Noroeste -- -- 0 1023.7 -- 84
2020-11-20 06:00:00 10.2 13 Oeste 15 Oeste 0 1023.9 -- 86
2020-11-20 05:00:00 10.7 10 Sudoeste 15 Oeste 0 1023.7 -- 86
2020-11-20 04:00:00 11 9 Oeste 13 Oeste 0 1024.2 -- 87
2020-11-20 03:00:00 11.8 9 Oeste -- -- 0 1024.6 -- 86
2020-11-20 02:00:00 12.2 12 Oeste 13 Oeste 0 1025 -- 91
2020-11-20 01:00:00 13 9 Noroeste 13 Noroeste 0 1025.4 -- 95
2020-11-20 00:00:00 13.5 10 Noroeste 13 Noroeste 0 1025.9 -- 96
2020-11-19 23:00:00 13.5 7 Oeste -- -- 0 1026.3 -- 95
2020-11-19 22:00:00 14.4 10 Noroeste -- -- 0 1026.4 -- 93
2020-11-19 21:00:00 14.5 9 Oeste 11 Oeste 0 1026.2 -- 92
2020-11-19 20:00:00 15.2 6 Oeste 8 Oeste 0 1025.9 -- 90
2020-11-19 19:00:00 16.5 5 Norte 9 Norte 0 1025.4 -- 84
2020-11-19 18:00:00 17.9 6 Nordeste 17 Este 0 1025 -- 79
2020-11-19 17:00:00 19.4 12 Este 24 Este 0 1025.4 -- 73
2020-11-19 16:00:00 20.4 15 Este 24 Norte 0 1025.1 -- 66
2020-11-19 15:00:00 21.9 15 Este 21 Este 0 1025.2 -- 52
2020-11-19 14:00:00 22.1 13 Este 21 Este 0 1025.6 -- 52
2020-11-19 13:00:00 21 4 Nordeste 15 Norte 0 1026.4 -- 59
2020-11-19 12:00:00 19.9 5 Norte 11 Norte 0 1026.9 -- 70
2020-11-19 11:00:00 18.9 4 Nordeste 11 Norte 0 1027.1 -- 76
2020-11-19 10:00:00 17.4 4 Norte 9 Oeste 0 1026.5 -- 80
2020-11-19 09:00:00 16.2 6 Noroeste 13 Noroeste 0 1025.8 -- 84
2020-11-19 08:00:00 15.5 9 Noroeste 15 Noroeste 0 1025.3 -- 87
2020-11-19 07:00:00 15.4 9 Oeste -- -- 0 1024.7 -- 91
2020-11-19 06:00:00 15.7 4 Oeste 5 Oeste 0 1024.4 -- 93
2020-11-19 05:00:00 15.3 3 Oeste 9 Norte 0 1024.3 -- 93
2020-11-19 04:00:00 14.1 4 Noroeste 8 Norte 0 1024.3 -- 98
2020-11-19 03:00:00 14.8 4 Este 9 Noroeste 0 1024.2 -- 91
2020-11-19 02:00:00 14.3 6 Noroeste 8 Oeste 0 1024.1 -- 96
2020-11-19 01:00:00 14.5 0 Calma 11 Noroeste 0 1024.1 -- 95
2020-11-19 00:00:00 14.7 8 Noroeste 13 Noroeste 0 1024.3 -- 97
2020-11-18 23:00:00 14.8 8 Noroeste 9 Noroeste 0 1024.3 -- 100
2020-11-18 22:00:00 15.2 -- -- -- -- 0 1024.2 -- 100
2020-11-18 21:00:00 16.2 6 Oeste -- -- 0 1024 -- 94
2020-11-18 20:00:00 16 5 Noroeste 8 Noroeste 0 1023.8 -- 95
2020-11-18 19:00:00 16.6 4 Oeste -- -- 0 1023.7 -- 91
2020-11-18 18:00:00 17.7 4 Sur 17 Sur 0 1023.2 -- 87
2020-11-18 17:00:00 19.2 12 Sur 18 Sur 0 1022.7 -- 79
2020-11-18 16:00:00 20.9 10 Sur 18 Sur 0 1022.6 -- 70
2020-11-18 15:00:00 20.9 10 Sur 17 Sur 0 1022.7 -- 69
2020-11-18 14:00:00 20.9 11 Sudoeste 22 Sudoeste 0 1023.1 -- 67
2020-11-18 13:00:00 21 12 Sudoeste 18 Sudoeste 0 1024 -- 68
2020-11-18 12:00:00 20.2 9 Oeste 17 Oeste 0 1024.7 -- 70
2020-11-18 11:00:00 18.6 10 Oeste 18 Oeste 0 1025.1 -- 76
2020-11-18 10:00:00 17.2 13 Noroeste 18 Noroeste 0 1024.8 -- 79
2020-11-18 09:00:00 15.8 10 Oeste 21 Noroeste 0 1024.3 -- 85
2020-11-18 08:00:00 15.1 13 Noroeste 21 Oeste 0 1023.7 -- 88
2020-11-18 07:00:00 15.4 10 Oeste 17 Oeste 0 1023.3 -- 90
2020-11-18 06:00:00 13.5 5 Oeste 8 Oeste 0 1023.4 -- 100
2020-11-18 05:00:00 13.8 6 Sur 9 Sur 0 1023.1 -- 100
2020-11-18 04:00:00 15.4 8 Noroeste 13 Oeste 0 1023.3 -- 94
2020-11-18 03:00:00 14.8 9 Oeste 11 Oeste 0 1023.4 -- 100
2020-11-18 02:00:00 14.6 12 Oeste -- -- 0 1023.4 -- 100
2020-11-18 01:00:00 15.8 6 Oeste 9 Oeste 0 1023.7 -- 100
2020-11-18 00:00:00 17 3 Oeste 8 Oeste 0 1023.9 -- 99
2020-11-17 23:00:00 16.6 7 Oeste 9 Oeste 0 1023.9 -- 98
2020-11-17 22:00:00 18 -- -- -- -- 0 1023.8 -- 94
2020-11-17 21:00:00 18.1 4 Oeste 5 Oeste 0 1023.5 -- 93
2020-11-17 20:00:00 18.1 0 Calma 5 Sur 0 1023.3 -- 94
2020-11-17 19:00:00 18 4 Sudeste 9 Sudeste 0 1022.9 -- 94
2020-11-17 18:00:00 18.6 6 Sudeste 11 Sur 0 1022.4 -- 88
2020-11-17 17:00:00 20 9 Sur 18 Sur 0 1022.2 -- 79
2020-11-17 16:00:00 21.6 11 Sur 24 Sudeste 0 1021.9 -- 68
2020-11-17 15:00:00 22.5 14 Sudeste 24 Sudeste 0 1021.9 -- 62
2020-11-17 14:00:00 22.4 11 Sur 24 Este 0 1022 -- 64
2020-11-17 13:00:00 23 14 Este 22 Sudeste 0 1022.6 -- 59
2020-11-17 12:00:00 21 6 Sur 15 Sur 0 1023.5 -- 69
2020-11-17 11:00:00 20.4 4 Oeste 9 Este 0 1023.8 -- 73
2020-11-17 10:00:00 19.8 6 Noroeste 13 Oeste 0 1023.7 -- 71
2020-11-17 09:00:00 16.7 8 Oeste 13 Noroeste 0 1023 -- 81
2020-11-17 08:00:00 15.1 9 Oeste 11 Oeste 0 1022.5 -- 88
2020-11-17 07:00:00 15.4 9 Noroeste 13 Noroeste 0 1021.9 -- 86
2020-11-17 06:00:00 15.6 6 Noroeste 11 Noroeste 0 1021.8 -- 85
2020-11-17 05:00:00 16.4 8 Oeste 9 Oeste 0 1021.6 -- 86
2020-11-17 04:00:00 15.6 6 Noroeste 11 Oeste 0 1021.6 -- 91
2020-11-17 03:00:00 15.5 6 Oeste 11 Noroeste 0 1021.5 -- 92
2020-11-17 02:00:00 17 9 Norte 11 Norte 0 1021.8 -- 89
2020-11-17 01:00:00 17.8 8 Norte 13 Nordeste 0 1021.9 -- 88
2020-11-17 00:00:00 17.9 6 Norte 13 Este 0 1022.1 -- 83
2020-11-16 23:00:00 18.1 6 Nordeste -- -- 0 1021.8 -- 78
2020-11-16 22:00:00 17.8 3 Nordeste 13 Este 0 1021.6 -- 76
2020-11-16 21:00:00 18.4 8 Nordeste 17 Nordeste 0 1020.9 -- 74
2020-11-16 20:00:00 19.6 10 Norte 26 Nordeste 0 1020.4 -- 68
2020-11-16 19:00:00 19.4 16 Nordeste 26 Este 0 1020 -- 75
2020-11-16 18:00:00 19.9 19 Nordeste 30 Nordeste 0 1019.2 -- 72
2020-11-16 17:00:00 20.6 18 Nordeste 32 Nordeste 0 1018.3 -- 69
2020-11-16 16:00:00 21.9 21 Este 48 Este 0 1017.7 -- 70
2020-11-16 15:00:00 27 16 Norte 39 Este 0 1016.8 -- 43
2020-11-16 14:00:00 26.3 24 Noroeste 35 Noroeste 0 1016.5 -- 46
2020-11-16 13:00:00 24.9 28 Noroeste 45 Noroeste 0 1017.2 -- 50
2020-11-16 12:00:00 23.9 32 Noroeste 50 Noroeste 0 1017.7 -- 53
2020-11-16 11:00:00 23.3 37 Noroeste 54 Noroeste 0 1017.6 -- 55
2020-11-16 10:00:00 22.8 30 Noroeste 45 Noroeste 0 1017.7 -- 56
2020-11-16 09:00:00 21.6 29 Noroeste 39 Noroeste 0 1017.3 -- 57
2020-11-16 08:00:00 19.4 19 Noroeste 26 Noroeste 0 1016.8 -- 61
2020-11-16 07:00:00 13.9 9 Sudoeste 15 Sudoeste 0 1016.3 -- 94
2020-11-16 06:00:00 14.8 5 Oeste 11 Sudoeste 0 1016.2 -- 88
2020-11-16 05:00:00 14.9 6 Sudoeste 11 Sudoeste 0 1016.3 -- 85
2020-11-16 04:00:00 15 6 Sudoeste 11 Sudoeste 0 1016.5 -- 84
2020-11-16 03:00:00 15.1 8 Oeste 11 Oeste 0 1016.7 -- 83
2020-11-16 02:00:00 14.8 10 Oeste 15 Oeste 0 1017.3 -- 84
2020-11-16 01:00:00 13.5 8 Sudoeste 11 Sudoeste 0 1017.4 -- 89
2020-11-16 00:00:00 15.8 9 Oeste 11 Oeste 0 1017.6 -- 82
2020-11-15 23:00:00 15.5 6 Oeste 13 Sudoeste 0 1018 -- 84
2020-11-15 22:00:00 17.1 8 Sudoeste 13 Oeste 0 1018.3 -- 78
2020-11-15 21:00:00 17.5 9 Sudoeste 15 Sudoeste 0 1018.1 -- 77
2020-11-15 20:00:00 18.4 12 Sudoeste 17 Sudoeste 0 1018 -- 74
2020-11-15 19:00:00 18.7 10 Oeste 13 Oeste 0 1017.4 -- 79
2020-11-15 18:00:00 20.1 9 Sur 22 Sur 0 1017 -- 76
2020-11-15 17:00:00 22.1 14 Sur 30 Sur 0 1016.5 -- 69
2020-11-15 16:00:00 22.8 18 Sur 28 Sur 0 1016.2 -- 65
2020-11-15 15:00:00 25.9 15 Sudoeste 24 Sudoeste 0 1016.3 -- 43
2020-11-15 14:00:00 25.1 8 Sudoeste 24 Oeste 0 1016.6 -- 46
2020-11-15 13:00:00 23.5 13 Sudoeste 22 Sudoeste 0 1017.4 -- 51
2020-11-15 12:00:00 22.6 15 Sudoeste 24 Sudoeste 0 1018.3 -- 54
2020-11-15 11:00:00 20.7 12 Sudoeste 24 Oeste 0 1018.4 -- 63
2020-11-15 10:00:00 19.7 11 Oeste 21 Oeste 0 1018.6 -- 64
2020-11-15 09:00:00 16.3 11 Oeste 22 Oeste 0 1018.4 -- 81
2020-11-15 08:00:00 13.5 10 Oeste 18 Sudoeste 0 1017.8 -- 92
2020-11-15 07:00:00 14.3 12 Sudoeste 15 Oeste 0 1017.2 -- 91
2020-11-15 06:00:00 12.6 12 Sudoeste -- -- 0 1017.1 -- 100
2020-11-15 05:00:00 13.3 11 Sudoeste 13 Sudoeste 0 1016.9 -- 98
2020-11-15 04:00:00 14 12 Oeste 15 Oeste 0 1017.2 -- 97
2020-11-15 03:00:00 14.4 10 Oeste 13 Oeste 0 1017.4 -- 100
2020-11-15 02:00:00 15.3 9 Oeste 11 Oeste 0 1017.5 -- 100
2020-11-15 01:00:00 15.5 6 Oeste 8 Oeste 0 1017.9 -- 100
2020-11-15 00:00:00 16.2 7 Oeste -- -- 0 1018.2 -- 100
2020-11-14 23:00:00 16.7 5 Oeste -- -- 0 1018.4 -- 98
2020-11-14 22:00:00 17.2 6 Oeste 9 Oeste 0 1018.4 -- 95
2020-11-14 21:00:00 16.9 6 Oeste 11 Oeste 0 1018 -- 95
2020-11-14 20:00:00 17.1 8 Sudoeste 11 Oeste 0 1017.8 -- 94
2020-11-14 19:00:00 17.6 8 Sudoeste 15 Sudoeste 0 1017.4 -- 93
2020-11-14 18:00:00 17.9 10 Sur 15 Sur 0 1017 -- 90
2020-11-14 17:00:00 18.9 9 Sur 17 Sur 0 1016.8 -- 86
2020-11-14 16:00:00 19.7 10 Sur 15 Sur 0 1016.8 -- 76
2020-11-14 15:00:00 20 9 Sudoeste 15 Sudoeste 0 1016.8 -- 73
2020-11-14 14:00:00 19.6 10 Oeste 17 Oeste 0 1017.4 -- 74
2020-11-14 13:00:00 19.5 11 Sudoeste 17 Oeste 0 1017.7 -- 74
2020-11-14 12:00:00 19.4 10 Oeste 15 Oeste 0 1018.3 -- 75
2020-11-14 11:00:00 19.1 3 Sudoeste 8 Sudoeste 0 1018.6 -- 76
2020-11-14 10:00:00 17.8 0 Calma 5 Noroeste 0 1018.8 -- 80
2020-11-14 09:00:00 16.2 5 Oeste 8 Oeste 0 1018.5 -- 85
2020-11-14 08:00:00 15.5 7 Oeste 13 Noroeste 0 1017.7 -- 85
2020-11-14 07:00:00 15.6 10 Oeste 15 Noroeste 0 1017.3 -- 84
2020-11-14 06:00:00 15.5 11 Oeste 17 Oeste 0 1017 -- 84
2020-11-14 05:00:00 15.3 11 Oeste 13 Oeste 0 1017 -- 85
2020-11-14 04:00:00 15.5 9 Noroeste 15 Oeste 0 1017 -- 85
2020-11-14 03:00:00 15.9 12 Noroeste 15 Noroeste 0 1017.5 -- 86
2020-11-14 02:00:00 15.2 11 Oeste 13 Oeste 0 1017.8 -- 91
2020-11-14 01:00:00 15.5 11 Oeste 13 Oeste 0 1018.2 -- 91
2020-11-14 00:00:00 16.6 12 Oeste 13 Oeste 0 1018.3 -- 92
2020-11-13 23:00:00 17 10 Oeste 15 Oeste 0 1018.1 -- 91
2020-11-13 22:00:00 17.2 10 Oeste 13 Oeste 0 1018.1 -- 89
2020-11-13 21:00:00 17 11 Oeste 13 Oeste 0 1017.6 -- 91
2020-11-13 20:00:00 16.2 10 Oeste 13 Oeste 0 1017.3 -- 93
2020-11-13 19:00:00 17.8 6 Nordeste 15 Norte 0 1016.9 -- 90
2020-11-13 18:00:00 18.4 10 Este 21 Este 0 1016.4 -- 84
2020-11-13 17:00:00 19.7 15 Este 24 Norte 0 1016.3 -- 77
2020-11-13 16:00:00 20.6 16 Este 26 Sudeste 0 1015.9 -- 71
2020-11-13 15:00:00 21.8 16 Sudeste 26 Sudeste 0 1015.9 -- 56
2020-11-13 14:00:00 22.9 10 Sudeste 21 Sudoeste 0 1016 -- 49
2020-11-13 13:00:00 22.4 8 Sur 15 Sur 0 1016.3 -- 50
2020-11-13 12:00:00 22.1 6 Sur 13 Oeste 0 1017.1 -- 50
2020-11-13 11:00:00 19.5 9 Oeste 15 Oeste 0 1017.3 -- 62
2020-11-13 10:00:00 18.1 10 Oeste 15 Oeste 0 1017.3 -- 68
2020-11-13 09:00:00 16.1 12 Oeste 15 Oeste 0 1016.9 -- 74
2020-11-13 08:00:00 15.6 8 Oeste 11 Oeste 0 1016.2 -- 76
2020-11-13 07:00:00 15.5 9 Oeste 13 Noroeste 0 1016.1 -- 76
2020-11-13 06:00:00 16.1 9 Noroeste 13 Noroeste 0 1016 -- 76
2020-11-13 05:00:00 17.1 9 Noroeste 13 Norte 0 1015.9 -- 73
2020-11-13 04:00:00 18.1 10 Norte 17 Norte 0 1016.1 -- 71
2020-11-13 03:00:00 18.1 10 Norte 17 Nordeste 0 1016.7 -- 71
2020-11-13 02:00:00 18.1 12 Norte 18 Norte 0 1017 -- 72
2020-11-13 01:00:00 17.8 10 Norte 15 Nordeste 0 1017.5 -- 71
2020-11-13 00:00:00 17.2 8 Norte 15 Norte 0 1017.4 -- 71
2020-11-12 23:00:00 17.4 10 Norte 15 Norte 0 1017.6 -- 68
2020-11-12 22:00:00 17.2 10 Norte 17 Norte 0 1017.7 -- 64
2020-11-12 21:00:00 17 12 Norte 15 Norte 0 1017.4 -- 71
2020-11-12 20:00:00 17.2 9 Norte 13 Norte 0 1017.8 -- 77
2020-11-12 19:00:00 16.6 8 Nordeste 22 Nordeste 0 1017.7 -- 86
2020-11-12 18:00:00 17.7 15 Nordeste 28 Este 0 1017.4 -- 86
2020-11-12 17:00:00 18.7 22 Este 30 Este 0 1017.7 -- 81
2020-11-12 16:00:00 19.8 18 Este 26 Este 0 1017.7 -- 69
2020-11-12 15:00:00 20.3 16 Este 24 Este 0 1017.8 -- 60
2020-11-12 14:00:00 20.2 14 Este 21 Este 0 1018.3 -- 59
2020-11-12 13:00:00 20.3 14 Este 22 Este 0 1018.9 -- 59
2020-11-12 12:00:00 20.2 10 Este 15 Este 0 1019.7 -- 50
2020-11-12 11:00:00 19.3 5 Nordeste 9 Este 0 1020 -- 51
2020-11-12 10:00:00 16.4 2 Oeste 5 Sudoeste 0 1019.8 -- 61
2020-11-12 09:00:00 13.7 0 Calma 5 Sudoeste 0 1019.7 -- 73
2020-11-12 08:00:00 11.5 4 Oeste 11 Noroeste 0 1019.3 -- 79
2020-11-12 07:00:00 11 7 Oeste 11 Oeste 0 1019 -- 81
2020-11-12 06:00:00 11.2 6 Oeste 11 Oeste 0 1019.1 -- 82
2020-11-12 05:00:00 10.9 5 Oeste 13 Oeste 0 1019.1 -- 84
2020-11-12 04:00:00 10.3 10 Oeste 11 Sudoeste 0 1019.3 -- 89
2020-11-12 03:00:00 11.3 8 Oeste 13 Noroeste 0 1020 -- 87
2020-11-12 02:00:00 11.6 10 Oeste 13 Noroeste 0 1020.3 -- 88
2020-11-12 01:00:00 11.7 10 Noroeste 13 Noroeste 0 1020.7 -- 94
2020-11-12 00:00:00 12.6 11 Noroeste 13 Noroeste 0 1020.8 -- 92
2020-11-11 23:00:00 13.3 5 Noroeste 15 Noroeste 0 1020.7 -- 94
2020-11-11 22:00:00 13.5 9 Noroeste 15 Norte 0 1021 -- 96
2020-11-11 21:00:00 15 6 Norte 13 Norte 0 1020.7 -- 90
2020-11-11 20:00:00 -- 8 Noroeste 9 Norte 0 1020.8 -- --
2020-11-11 19:00:00 16.1 6 Norte 13 Este 0 1020.4 -- 89
2020-11-11 18:00:00 16.8 9 Nordeste 18 Este 0 1019.9 -- 85
2020-11-11 17:00:00 18.4 12 Este 24 Este 0 1020.1 -- 76
2020-11-11 16:00:00 19.2 14 Este 24 Este 0 1020 -- 69
2020-11-11 15:00:00 19.9 14 Este 22 Este 0 1020.2 -- 63
2020-11-11 14:00:00 19.9 12 Este 22 Este 0 1020.7 -- 64
2020-11-11 13:00:00 19.7 10 Este 21 Este 0 1021.5 -- 61
2020-11-11 12:00:00 19.6 12 Este 18 Este 0 1022.3 -- 64
2020-11-11 11:00:00 19.2 8 Este 15 Este 0 1022.7 -- 61
2020-11-11 10:00:00 17.3 9 Oeste 13 Oeste 0 1022.7 -- 63
2020-11-11 09:00:00 13.9 8 Oeste 15 Noroeste 0 1022.9 -- 79
2020-11-11 08:00:00 11.3 11 Oeste 15 Oeste 0 1022.3 -- 88
2020-11-11 07:00:00 11.7 10 Oeste 15 Noroeste 0 1022.3 -- 87
2020-11-11 06:00:00 12 12 Noroeste 18 Noroeste 0 1022.4 -- 88
2020-11-11 05:00:00 12.2 13 Noroeste 17 Noroeste 0 1022.6 -- 89
2020-11-11 04:00:00 12.1 7 Noroeste 13 Noroeste 0 1022.7 -- 90
2020-11-11 03:00:00 12.6 10 Noroeste 15 Noroeste 0 1022.8 -- 89
2020-11-11 02:00:00 13.7 13 Noroeste 15 Noroeste 0 1023.1 -- 89
2020-11-11 01:00:00 13.7 12 Noroeste 18 Noroeste 0 1023.3 -- 91
2020-11-11 00:00:00 13.4 8 Noroeste -- -- 0 1023 -- 93
2020-11-10 23:00:00 14 -- -- -- -- 0 1023.3 -- 91
2020-11-10 22:00:00 15.4 5 Norte 11 Noroeste 0 1023.2 -- 85
2020-11-10 21:00:00 15.2 7 Noroeste 18 Este 0 1022.9 -- 85
2020-11-10 20:00:00 17 13 Este 21 Este 0 1022.6 -- 79
2020-11-10 19:00:00 17.8 15 Este 21 Nordeste 0 1022.4 -- 79
2020-11-10 18:00:00 18.8 14 Este 24 Este 0 1021.9 -- 76
2020-11-10 17:00:00 19.8 17 Este 24 Este 0 1021.5 -- 69
2020-11-10 16:00:00 20.4 17 Este 30 Este 0 1021.2 -- 59
2020-11-10 15:00:00 20.9 18 Este 28 Este 0 1020.7 -- 67
2020-11-10 14:00:00 21.9 14 Sudeste 22 Este 0 1020.9 -- 65
2020-11-10 13:00:00 21.1 10 Este 18 Este 0 1021.4 -- 69
2020-11-10 12:00:00 20.7 9 Este 21 Este 0 1022.1 -- 71
2020-11-10 11:00:00 19.4 5 Nordeste 13 Nordeste 0 1022.3 -- 76
2020-11-10 10:00:00 19.4 4 Oeste 9 Noroeste 0 1022.1 -- 70
2020-11-10 09:00:00 15.8 5 Noroeste 11 Norte 0 1021.7 -- 70
2020-11-10 08:00:00 13.5 6 Noroeste 11 Noroeste 0 1020.8 -- 77
2020-11-10 07:00:00 14.3 5 Oeste 9 Nordeste 0 1020.1 -- 73
2020-11-10 06:00:00 13.4 6 Oeste 9 Oeste 0 1019.6 -- 79
2020-11-10 05:00:00 12.9 7 Noroeste 13 Noroeste 0 1019.4 -- 84
2020-11-10 04:00:00 13.7 4 Noroeste 8 Oeste 0 1019.2 -- 80
2020-11-10 03:00:00 13.8 8 Oeste 11 Oeste 0 1019.5 -- 82
2020-11-10 02:00:00 13 11 Oeste 13 Sudoeste 0 1019.4 -- 91
2020-11-10 01:00:00 13.8 7 Oeste 9 Oeste 0 1019.7 -- 92
2020-11-10 00:00:00 14.8 6 Oeste 9 Oeste 0 1019.8 -- 93
2020-11-09 23:00:00 15.7 3 Norte 8 Noroeste 0 1020 -- 92
2020-11-09 22:00:00 15.2 3 Oeste 11 Noroeste 0 1019.8 -- 93
2020-11-09 21:00:00 16.1 8 Noroeste 11 Norte 0 1019.4 -- 92
2020-11-09 20:00:00 15.3 5 Noroeste 8 Noroeste 0 1019.3 -- 90
2020-11-09 19:00:00 17 0 Calma 4 Nordeste 0 1018.8 -- 85
2020-11-09 18:00:00 18.1 0 Calma 11 Sudeste 0 1018.3 -- 82
2020-11-09 17:00:00 19.6 8 Sur 17 Sur 0 1017.9 -- 75
2020-11-09 16:00:00 20.6 11 Sur 17 Sur 0 1017.7 -- 69
2020-11-09 15:00:00 21.2 11 Sur 21 Norte 0 1017.3 -- 66
2020-11-09 14:00:00 21.1 12 Este 26 Sudeste 0 1017.8 -- 56
2020-11-09 13:00:00 21.7 13 Este 22 Este 0 1018.4 -- 55
2020-11-09 12:00:00 21 5 Sur 11 Sur 0 1019.1 -- 56
2020-11-09 11:00:00 17.5 6 Oeste 9 Oeste 0 1019.4 -- 67
2020-11-09 10:00:00 14.6 8 Sudoeste 11 Oeste 0 1019.3 -- 80
2020-11-09 09:00:00 14 8 Sudoeste 11 Oeste 0 1018.8 -- 81
2020-11-09 08:00:00 12.1 9 Oeste 13 Oeste 0 1018.1 -- 86
2020-11-09 07:00:00 11.2 11 Oeste 15 Oeste 0 1017.7 -- 89
2020-11-09 06:00:00 11.4 12 Oeste 15 Oeste 0 1017.8 -- 90
2020-11-09 05:00:00 11.9 11 Oeste 15 Oeste 0 1017.7 -- 90
2020-11-09 04:00:00 12.4 13 Sudoeste 15 Sudoeste 0 1017.7 -- 91
2020-11-09 03:00:00 13 12 Oeste 17 Oeste 0 1018 -- 88
2020-11-09 02:00:00 13.1 9 Oeste 11 Oeste 0 1018 -- 88
2020-11-09 01:00:00 -- 8 Oeste 11 Noroeste 0 1018.4 -- --
2020-11-09 00:00:00 13.8 9 Noroeste 11 Noroeste 0 1018.6 -- 94
2020-11-08 23:00:00 14.1 8 Noroeste 9 Noroeste 0 1018.8 -- 92
2020-11-08 22:00:00 14.8 -- -- -- -- 0 1018.8 -- 91
2020-11-08 21:00:00 14.8 5 Noroeste 8 Norte 0 1018.5 -- 90
2020-11-08 20:00:00 16.8 4 Norte 8 Norte 0 1018.6 -- 82
2020-11-08 19:00:00 17.4 4 Norte 9 Nordeste 0 1018.3 -- 82
2020-11-08 18:00:00 18.2 7 Nordeste 17 Este 0 1018.2 -- 80
2020-11-08 17:00:00 18.9 12 Este 21 Este 0 1018.3 -- 78
2020-11-08 16:00:00 19.8 14 Este 22 Norte 0 1018.3 -- 73
2020-11-08 15:00:00 20.9 14 Este 24 Este 0 1018.4 -- 59
2020-11-08 14:00:00 21.3 13 Este 22 Norte 0 1018.8 -- 51
2020-11-08 13:00:00 21.7 13 Este 24 Este 0 1019.6 -- 52
2020-11-08 12:00:00 21.6 12 Este 26 Nordeste 0 1020.5 -- 60
2020-11-08 11:00:00 20.3 9 Este 17 Este 0 1020.9 -- 68
2020-11-08 10:00:00 18.6 0 Calma 5 Norte 0 1020.8 -- 70
2020-11-08 09:00:00 14.8 4 Oeste 8 Oeste 0 1020.4 -- 75
2020-11-08 08:00:00 13.3 6 Oeste 11 Noroeste 0 1019.9 -- 78
2020-11-08 07:00:00 14.2 7 Noroeste 9 Noroeste 0 1019.6 -- 71
2020-11-08 06:00:00 15.4 10 Noroeste 11 Noroeste 0 1019.8 -- 65
2020-11-08 05:00:00 15.4 4 Noroeste 8 Oeste 0 1019.7 -- 64
2020-11-08 04:00:00 15.2 5 Oeste 11 Noroeste 0 1019.8 -- 63
2020-11-08 03:00:00 13.5 11 Norte 13 Norte 0 1020.1 -- 68
2020-11-08 02:00:00 13.6 11 Noroeste 13 Noroeste 0 1020.1 -- 68
2020-11-08 01:00:00 14.4 4 Noroeste 8 Noroeste 0 1020.2 -- 65
2020-11-08 00:00:00 16.3 5 Oeste 15 Norte 0 1020.2 -- 56
2020-11-07 23:00:00 16.7 8 Norte 13 Noroeste 0 1020 -- 55
2020-11-07 22:00:00 15.4 13 Noroeste 18 Noroeste 0 1019.7 -- 70
2020-11-07 21:00:00 17 6 Noroeste 18 Norte 0 1019.3 -- 87
2020-11-07 20:00:00 16.9 4 Norte 8 Norte 0 1019.1 -- 87
2020-11-07 19:00:00 17.8 2 Oeste 11 Sudoeste 0 1018.3 -- 87
2020-11-07 18:00:00 19.6 6 Sur 28 Sur 0 1017.4 -- 80
2020-11-07 17:00:00 20.9 16 Sur 32 Sur 0 1016.8 -- 74
2020-11-07 16:00:00 22.2 23 Sur 37 Sur 0 1016.3 -- 67
2020-11-07 15:00:00 23.9 15 Sur 28 Sudoeste 0 1016 -- 53
2020-11-07 14:00:00 23.9 14 Sur 28 Sur 0 1016 -- 55
2020-11-07 13:00:00 22.2 11 Sur 24 Sur 0 1016.6 -- 61
2020-11-07 12:00:00 21.5 8 Sudeste 22 Sur 0 1017 -- 60
2020-11-07 11:00:00 20.4 2 Norte 13 Oeste 0 1016.6 -- 63
2020-11-07 10:00:00 17.1 9 Norte 13 Norte 0 1015.6 -- 85
2020-11-07 09:00:00 15.9 4 Sur 11 Oeste 0 1015 -- 92
2020-11-07 08:00:00 15.6 5 Sudoeste 13 Sur 0.1 1014.1 -- 93
2020-11-07 07:00:00 16.7 13 Oeste 54 Oeste 0.5 1013.8 -- 79
2020-11-07 06:00:00 19.8 27 Oeste 46 Oeste 0 1012.3 -- 73
2020-11-07 05:00:00 20.1 8 Este 30 Este 0 1011 -- 78
2020-11-07 04:00:00 20.9 15 Nordeste 32 Este 0.1 1010.9 -- 73
2020-11-07 03:00:00 22 22 Nordeste 35 Este 0 1011.1 -- 64
2020-11-07 02:00:00 22.3 24 Este 33 Este 0 1011 -- 61
2020-11-07 01:00:00 22.4 23 Nordeste 33 Este 0 1011.2 -- 62
2020-11-07 00:00:00 22.5 20 Este 32 Este 0 1011.6 -- 62
2020-11-06 23:00:00 23 18 Este 35 Nordeste 0 1011.7 -- 57
2020-11-06 22:00:00 22.9 18 Este 35 Este 0 1011.7 -- 55
2020-11-06 21:00:00 24 17 Nordeste 28 Este 0 1011.6 -- 45
2020-11-06 20:00:00 24.1 15 Nordeste 28 Nordeste 0 1012.3 -- 40
2020-11-06 19:00:00 23.2 17 Nordeste 32 Nordeste 0 1012.5 -- 49
2020-11-06 18:00:00 22.7 19 Nordeste 33 Nordeste 0 1012.8 -- 57
2020-11-06 17:00:00 23 23 Este 41 Este 0 1013.2 -- 60
2020-11-06 16:00:00 24.1 25 Nordeste 42 Nordeste 0 1013.4 -- 57
2020-11-06 15:00:00 23.8 24 Nordeste 45 Nordeste 0 1013.6 -- 62
2020-11-06 14:00:00 24.2 28 Nordeste 52 Nordeste 0 1014.4 -- 60
2020-11-06 13:00:00 23.7 32 Este 48 Nordeste 0 1015.4 -- 66
2020-11-06 12:00:00 23.1 27 Este 42 Este 0 1016 -- 67
2020-11-06 11:00:00 22.2 23 Este 37 Este 0 1016.2 1 73
2020-11-06 10:00:00 21.8 23 Este 32 Este 0 1016.2 -- 70
2020-11-06 09:00:00 18.9 10 Nordeste 17 Nordeste 0 1015.8 -- 71
2020-11-06 08:00:00 18.6 12 Nordeste 21 Nordeste 0 1015.2 -- 76
2020-11-06 07:00:00 18.1 10 Nordeste 18 Nordeste 0 1015.1 -- 75
2020-11-06 06:00:00 18.7 10 Nordeste 21 Nordeste 0 1015 -- 68
2020-11-06 05:00:00 19.5 13 Nordeste 18 Nordeste 0 1014.9 -- 70
2020-11-06 04:00:00 19.5 8 Nordeste 17 Nordeste 0 1015.1 -- 72
2020-11-06 03:00:00 19.6 13 Nordeste 22 Nordeste 0 1015.3 -- 76
2020-11-06 02:00:00 19.6 13 Nordeste 21 Nordeste 0 1015.2 -- 75
2020-11-06 01:00:00 20 13 Nordeste 24 Nordeste 0 1015.2 -- 73
2020-11-06 00:00:00 19.7 14 Nordeste 28 Nordeste 0 1015.1 -- 75
2020-11-05 23:00:00 19.5 15 Nordeste 26 Nordeste 0 1015.4 -- 76
2020-11-05 22:00:00 19.2 16 Nordeste 32 Nordeste 0 1015.4 -- 86
2020-11-05 21:00:00 19.7 21 Nordeste 32 Nordeste 0 1015.6 -- 91
2020-11-05 20:00:00 19.4 20 Nordeste 33 Nordeste 0 1015.4 -- 93
2020-11-05 19:00:00 19.4 15 Nordeste 24 Nordeste 0 1015.6 -- 89
2020-11-05 18:00:00 19.5 14 Nordeste 30 Nordeste 0 1014.8 -- 90
2020-11-05 17:00:00 19.7 21 Nordeste 39 Este 0 1014.3 -- 93
2020-11-05 16:00:00 19.4 25 Nordeste 42 Este 1.3 1014.8 -- 98
2020-11-05 15:00:00 20.5 23 Nordeste 45 Nordeste 0 1015.6 -- 86
2020-11-05 14:00:00 21.1 31 Nordeste 52 Este 0 1015.5 -- 83
2020-11-05 13:00:00 21.2 38 Nordeste 55 Este 0 1016.1 -- 82
2020-11-05 12:00:00 20.5 32 Nordeste 58 Este 0 1016.5 -0.2 83
2020-11-05 11:00:00 20.1 33 Nordeste 52 Nordeste 0 1017.4 -- 83
2020-11-05 10:00:00 19.7 35 Nordeste 55 Nordeste 0 1016.9 -- 83
2020-11-05 09:00:00 19.2 30 Nordeste 58 Este 0 1016.7 -- 84
2020-11-05 08:00:00 18.9 37 Nordeste 58 Este 0 1015.6 -- 83
2020-11-05 07:00:00 19 31 Nordeste 50 Nordeste 0 1016.1 -- 82
2020-11-05 06:00:00 18.9 31 Nordeste 58 Nordeste 0 1015.7 -- 80
2020-11-05 05:00:00 18.6 31 Nordeste 55 Nordeste 0 1015.4 -- 77
2020-11-05 04:00:00 18.9 32 Nordeste 52 Nordeste 0 1015 -- 73
2020-11-05 03:00:00 18.5 19 Nordeste 37 Nordeste 0 1015.1 -- 71
2020-11-05 02:00:00 18.5 24 Nordeste 41 Este 0 1015.3 -- 77
2020-11-05 01:00:00 18 23 Nordeste 35 Nordeste 0 1015.4 -- 85
2020-11-05 00:00:00 17.5 13 Nordeste 21 Nordeste 1.2 1015.4 -- 84
2020-11-04 23:00:00 18.2 14 Norte 30 Nordeste 0 1015.4 -- 67
2020-11-04 22:00:00 18.3 17 Norte 26 Norte 0 1015.2 -- 65
2020-11-04 21:00:00 18.1 13 Nordeste 24 Norte 0 1014.7 -- 64
2020-11-04 20:00:00 18.1 18 Norte 28 Norte 0 1014.1 -- 63
2020-11-04 19:00:00 18 16 Norte 30 Norte 0 1013.7 -- 62
2020-11-04 18:00:00 18.3 17 Norte 32 Norte 0 1013.2 -- 61
2020-11-04 17:00:00 19.5 18 Norte 37 Este 0 1012.9 -- 60
2020-11-04 16:00:00 20.7 26 Este 35 Nordeste 0 1013.2 -- 60
2020-11-04 15:00:00 20.2 22 Este 32 Este 0 1013.4 -- 66
2020-11-04 14:00:00 20.8 22 Este 30 Nordeste 0 1014 -- 66
2020-11-04 13:00:00 19 18 Este 30 Este 0 1014.9 -- 77
2020-11-04 12:00:00 20.3 14 Este 24 Sudeste 0 1015.5 -- 73
2020-11-04 11:00:00 19.2 8 Nordeste 18 Este 0 1015.8 0.2 82
2020-11-04 10:00:00 17.3 8 Norte 13 Norte 1 1015.9 -- 88
2020-11-04 09:00:00 15.5 8 Sudeste 17 Sur 2.1 1015.9 -- 92
2020-11-04 08:00:00 16.2 11 Norte 17 Norte 0 1015.6 -- 78
2020-11-04 07:00:00 15.4 9 Norte 15 Norte 0 1015.7 -- 83
2020-11-04 06:00:00 16.2 13 Norte 18 Norte 0 1016.1 -- 82
2020-11-04 05:00:00 15.8 8 Norte 15 Norte 0 1016.5 -- 83
2020-11-04 04:00:00 16.3 9 Nordeste 15 Norte 0 1017.2 -- 83
2020-11-04 03:00:00 16 9 Norte 11 Norte 0 1018.4 -- 87
2020-11-04 02:00:00 16.7 6 Nordeste 11 Este 0 1018.7 -- 84
2020-11-04 01:00:00 17.4 8 Nordeste 13 Nordeste 0 1019.5 -- 80
2020-11-04 00:00:00 17.3 10 Norte 26 Nordeste 0 1019.9 -- 83
2020-11-03 23:00:00 18.2 16 Este 33 Este 0 1020.2 -- 82
2020-11-03 22:00:00 18.8 27 Este 41 Nordeste 0 1020.3 -- 79
2020-11-03 21:00:00 19 29 Este 42 Nordeste 0 1020.1 -- 78
2020-11-03 20:00:00 19.2 28 Este 41 Este 0 1020 -- 78
2020-11-03 19:00:00 19.2 26 Este 35 Este 0 1019.6 -- 82
2020-11-03 18:00:00 19.4 21 Nordeste 33 Norte 0 1019.3 -- 81
2020-11-03 17:00:00 19.9 10 Este 18 Este 0 1019.3 -- 80
2020-11-03 16:00:00 20.5 14 Este 24 Norte 0 1019.3 -- 75
2020-11-03 15:00:00 21.2 15 Este 24 Este 0 1019.4 -- 71
2020-11-03 14:00:00 20.7 14 Este 24 Sudeste 0 1019.7 -- 73
2020-11-03 13:00:00 20.8 13 Este 32 Este 0 1020.4 -- 72
2020-11-03 12:00:00 20.6 11 Este 18 Este 0 1021 -- 70
2020-11-03 11:00:00 19.7 11 Este 18 Nordeste 0 1021.1 -- 77
2020-11-03 10:00:00 18.6 11 Norte 21 Norte 0 1020.8 -- 79
2020-11-03 09:00:00 16.2 10 Norte 15 Norte 0 1020.4 -- 90
2020-11-03 08:00:00 15.2 11 Norte 17 Norte 0 1019.5 -- 95
2020-11-03 07:00:00 14.3 6 Norte 13 Norte 0 1018.9 -- 100
2020-11-03 06:00:00 14.5 10 Norte 13 Norte 0 1018.8 -- 100
2020-11-03 05:00:00 14.3 5 Norte 8 Norte 0 1018.6 -- 100
2020-11-03 04:00:00 12.9 4 Noroeste 8 Norte 0 1018.7 -- 100
2020-11-03 03:00:00 12.4 2 Oeste 5 Oeste 0 1018.7 -- 100
2020-11-03 02:00:00 12.9 5 Oeste -- -- 0 1018.7 -- 97
2020-11-03 01:00:00 13.5 7 Noroeste 8 Noroeste 0 1018.8 -- 91
2020-11-03 00:00:00 13.5 7 Noroeste 8 Oeste 0 1018.8 -- 96
2020-11-02 23:00:00 14.4 7 Oeste -- -- 0 1019.1 -- 96
2020-11-02 22:00:00 14.1 5 Oeste 8 Oeste 0 1019.1 -- 97
2020-11-02 21:00:00 15.3 5 Noroeste 9 Norte 0 1019.1 -- 97
2020-11-02 20:00:00 16 7 Noroeste -- -- 0 1018.9 -- 93
2020-11-02 19:00:00 16.9 3 Sudoeste 8 Sur 0 1018.4 -- 90
2020-11-02 18:00:00 18.5 6 Sur 13 Sur 0 1017.9 -- 81
2020-11-02 17:00:00 20.8 5 Sur 13 Sur 0 1017.8 -- 66
2020-11-02 16:00:00 20.9 7 Sur 17 Sur 0 1017.8 -- 66
2020-11-02 15:00:00 21 10 Sur 15 Sur 0 1017.8 -- 66
2020-11-02 14:00:00 21.3 12 Sur 17 Sur 0 1018.5 -- 67
2020-11-02 13:00:00 21.8 5 Sur 13 Sudoeste 0 1018.9 -- 62
2020-11-02 12:00:00 20.3 6 Sur 15 Sur 0 1019.6 -- 63
2020-11-02 11:00:00 18.6 10 Sudoeste 17 Sudoeste 0 1019.9 -- 67
2020-11-02 10:00:00 17.8 5 Sudoeste 9 Sudoeste 0 1019.9 -- 67
2020-11-02 09:00:00 15.1 6 Oeste 13 Noroeste 0 1019.8 -- 84
2020-11-02 08:00:00 13.3 9 Noroeste 13 Noroeste 0 1019.4 -- 100
2020-11-02 07:00:00 13.7 7 Oeste 11 Noroeste 0 1019.1 -- 98
2020-11-02 06:00:00 14.7 8 Noroeste 9 Oeste 0 1019.1 -- 98
2020-11-02 05:00:00 15.1 3 Noroeste -- -- 0 1019 -- 98
2020-11-02 04:00:00 15.4 3 Noroeste -- -- 0 1018.9 -- 99
2020-11-02 03:00:00 15.5 4 Norte 8 Norte 0 1019.1 -- 100
2020-11-02 02:00:00 15.9 5 Noroeste 9 Noroeste 0 1019.2 -- 100
2020-11-02 01:00:00 16.1 6 Noroeste 9 Noroeste 0 1019.5 -- 100
2020-11-02 00:00:00 15.6 6 Noroeste 11 Oeste 0 1019.7 -- 100
2020-11-01 23:00:00 14 7 Noroeste -- -- 0 1019.9 -- 97
2020-11-01 22:00:00 14.6 -- -- -- -- 0 1019.9 -- 94
2020-11-01 21:00:00 15.5 6 Oeste 11 Oeste 0 1019.7 -- 93
2020-11-01 20:00:00 17.1 0 Calma 8 Este 0 1019.7 -- 94
2020-11-01 19:00:00 17.3 8 Norte 9 Norte 0 1019.5 -- 92
2020-11-01 18:00:00 18.4 9 Este 15 Este 0 1019.4 -- 84
2020-11-01 17:00:00 20 11 Este 15 Este 0 1019.3 -- 76
2020-11-01 16:00:00 21.3 11 Este 18 Este 0 1019.3 -- 66
2020-11-01 15:00:00 21.7 11 Este 17 Norte 0 1019.5 -- 63
2020-11-01 14:00:00 21.9 10 Este 17 Este 0 1019.9 -- 64
2020-11-01 13:00:00 22.3 8 Este 15 Este 0 1020.5 -- 64
2020-11-01 12:00:00 21.4 6 Este 13 Sudeste 0 1021.3 -- 67
2020-11-01 11:00:00 20.1 4 Nordeste 11 Nordeste 0 1021.5 -- 70
2020-11-01 10:00:00 18.8 5 Nordeste 13 Nordeste 0 1021.3 -- 80
2020-11-01 09:00:00 16.3 5 Norte 11 Noroeste 0 1020.8 -- 93
2020-11-01 08:00:00 13.7 8 Noroeste 9 Noroeste 0 1020.4 -- 100
2020-11-01 07:00:00 15.2 8 Oeste 11 Oeste 0 1020.3 -- 96
2020-11-01 06:00:00 12.8 5 Oeste 9 Noroeste 0 1020.2 -- 95
2020-11-01 05:00:00 12.2 4 Oeste 8 Oeste 0 1020.1 -- 91
2020-11-01 04:00:00 12.7 6 Oeste 9 Noroeste 0 1020.1 -- 92
2020-11-01 03:00:00 12.3 8 Noroeste 9 Noroeste 0 1020.4 -- 92
2020-11-01 02:00:00 13.2 6 Noroeste 8 Noroeste 0 1020.6 -- 88
2020-11-01 01:00:00 12.7 4 Noroeste 8 Norte 0 1020.6 -- 89
2020-11-01 00:00:00 13.5 2 Noroeste -- -- 0 1020.7 -- 85
2020-10-31 23:00:00 14.8 5 Oeste 9 Oeste 0 1020.8 -- 84
2020-10-31 22:00:00 14.6 6 Oeste 9 Oeste 0 1020.8 -- 90
2020-10-31 21:00:00 16 6 Oeste -- -- 0 1020.6 -- 92
2020-10-31 20:00:00 16.5 5 Sudoeste -- -- 0 1020.3 -- 91
2020-10-31 19:00:00 17.7 4 Sudoeste 8 Sudeste 0 1020.3 -- 82
2020-10-31 18:00:00 19.6 5 Este 15 Este 0 1020.1 -- 75
2020-10-31 17:00:00 21.9 12 Este 18 Sur 0 1020.1 -- 52
2020-10-31 16:00:00 22.6 12 Sur 21 Sudoeste 0 1019.7 -- 48
2020-10-31 15:00:00 24.2 13 Sur 21 Sur 0 1019.5 -- 40
2020-10-31 14:00:00 24.8 8 Sur 15 Sur 0 1019.9 -- 39
2020-10-31 13:00:00 24.4 6 Este 18 Sudeste 0 1020.6 -- 37
2020-10-31 12:00:00 23.8 8 Sur 15 Sur 0 1021.4 -- 39
2020-10-31 11:00:00 22.4 4 Sudoeste 11 Oeste 0 1022 -- 43
2020-10-31 10:00:00 19.4 5 Sudoeste 9 Sudoeste 0 1022.2 -- 52
2020-10-31 09:00:00 16.2 6 Oeste 9 Oeste 0 1022 -- 58
2020-10-31 08:00:00 12.9 7 Oeste -- -- 0 1021.7 -- 70
2020-10-31 07:00:00 12.6 7 Oeste 9 Oeste 0 1021.4 -- 71
2020-10-31 06:00:00 12.2 4 Oeste 11 Noroeste 0 1021.2 -- 72
2020-10-31 05:00:00 11.9 9 Oeste 13 Oeste 0 1021 -- 74
2020-10-31 04:00:00 12.3 5 Oeste -- -- 0 1021 -- 72
2020-10-31 03:00:00 13.1 6 Oeste 11 Oeste 0 1021.3 -- 70
2020-10-31 02:00:00 13.3 4 Oeste 13 Oeste 0 1021.5 -- 70
2020-10-31 01:00:00 13.2 6 Oeste -- -- 0 1021.8 -- 73
2020-10-31 00:00:00 14.3 8 Oeste 11 Oeste 0 1021.9 -- 71
2020-10-30 23:00:00 14 6 Oeste 11 Oeste 0 1022.2 -- 84
2020-10-30 22:00:00 14 6 Oeste -- -- 0 1022.2 -- 89
2020-10-30 21:00:00 15.2 5 Noroeste 13 Norte 0 1021.9 -- 92
2020-10-30 20:00:00 17.3 7 Nordeste 11 Nordeste 0 1021.8 -- 93
2020-10-30 19:00:00 17.7 7 Nordeste 11 Nordeste 0 1021.7 -- 92
2020-10-30 18:00:00 19.2 10 Este 18 Este 0 1021.4 -- 86
2020-10-30 17:00:00 21.9 13 Este 17 Este 0 1021.2 -- 49
2020-10-30 16:00:00 24 10 Este 21 Sudeste 0 1020.9 -- 38
2020-10-30 15:00:00 23.6 12 Este 21 Este 0 1021.3 -- 47
2020-10-30 14:00:00 23.3 13 Este 18 Este 0 1021.7 -- 53
2020-10-30 13:00:00 23.6 9 Nordeste 15 Este 0 1022.2 -- 51
2020-10-30 12:00:00 22.9 9 Este 15 Este 0 1023 -- 52
2020-10-30 11:00:00 21.3 4 Este 11 Norte 0 1023.2 -- 53
2020-10-30 10:00:00 19.9 3 Nordeste 8 Este 0 1023.3 -- 59
2020-10-30 09:00:00 16.6 2 Sur 5 Sur 0 1023.2 -- 74
2020-10-30 08:00:00 12.3 4 Noroeste 9 Oeste 0 1022.7 -- 88
2020-10-30 07:00:00 11.3 8 Oeste 15 Oeste 0 1022.4 -- 91
2020-10-30 06:00:00 10.6 7 Oeste 9 Oeste 0 1022.4 -- 93
2020-10-30 05:00:00 12.2 5 Sudoeste 11 Noroeste 0 1022.2 -- 89
2020-10-30 04:00:00 13.1 7 Oeste 11 Oeste 0 1022.4 -- 88
2020-10-30 03:00:00 13.2 7 Oeste 13 Oeste 0 1022.5 -- 90
2020-10-30 02:00:00 13.5 11 Oeste 13 Oeste 0 1022.7 -- 92
2020-10-30 01:00:00 13.6 8 Oeste -- -- 0 1023 -- 93
2020-10-30 00:00:00 14.6 6 Oeste 8 Oeste 0 1023.3 -- 95
2020-10-29 23:00:00 14.8 5 Oeste 8 Noroeste 0 1023.3 -- 94
2020-10-29 22:00:00 14.9 5 Noroeste 8 Noroeste 0 1023.2 -- 94
2020-10-29 21:00:00 15.8 -- -- -- -- 0 1022.9 -- 91
2020-10-29 20:00:00 16.1 3 Noroeste 8 Este 0 1022.7 -- 90
2020-10-29 19:00:00 17.5 5 Este 11 Este 0 1022.4 -- 88
2020-10-29 18:00:00 19.1 9 Este 13 Este 0 1022 -- 80
2020-10-29 17:00:00 20.8 9 Sudeste 17 Sudeste 0 1021.8 -- 73
2020-10-29 16:00:00 21 12 Este 26 Sudeste 0 1021.9 -- 71
2020-10-29 15:00:00 22.1 14 Este 22 Este 0 1021.6 -- 67
2020-10-29 14:00:00 21.8 13 Sudeste 22 Este 0 1022.2 -- 67
2020-10-29 13:00:00 22 14 Este 21 Este 0 1023.2 -- 65
2020-10-29 12:00:00 22.1 11 Este 17 Este 0 1023.6 -- 62
2020-10-29 11:00:00 21.6 7 Este 15 Este 0 1023.6 -- 62
2020-10-29 10:00:00 20.8 2 Este 11 Noroeste 0 1023.2 -- 66
2020-10-29 09:00:00 18.2 7 Noroeste 11 Noroeste 0 1022.7 -- 59
2020-10-29 08:00:00 14.5 10 Noroeste 15 Norte 0 1022.1 -- 72
2020-10-29 07:00:00 13.1 13 Noroeste 13 Noroeste 0 1021.6 -- 78
2020-10-29 06:00:00 12.5 10 Noroeste 13 Norte 0 1021.3 -- 81
2020-10-29 05:00:00 14.6 11 Norte 13 Norte 0 1020.9 -- 72
2020-10-29 04:00:00 12.7 6 Norte 8 Noroeste 0 1020.3 -- 79
2020-10-29 03:00:00 12.7 0 Calma 5 Oeste 0 1019.6 -- 78
2020-10-29 02:00:00 12.4 3 Noroeste 11 Oeste 0 1019.5 -- 80
2020-10-29 01:00:00 13.4 4 Noroeste 9 Sudoeste 0 1019.7 -- 76
2020-10-29 00:00:00 15.9 5 Oeste 9 Noroeste 0 1019.9 -- 67
2020-10-28 23:00:00 15.7 -- -- -- -- 0 1019.8 -- 68
2020-10-28 22:00:00 15.4 6 Oeste -- -- 0 1019.7 -- 62
2020-10-28 21:00:00 15.9 4 Noroeste 8 Noroeste 0 1019.2 -- 68
2020-10-28 20:00:00 16.6 7 Noroeste 8 Noroeste 0 1018.8 -- 72
2020-10-28 19:00:00 17.7 5 Oeste 11 Sudoeste 0 1018.3 -- 71
2020-10-28 18:00:00 19.3 7 Sur 13 Sur 0 1017.7 -- 65
2020-10-28 17:00:00 21.1 9 Sudeste 18 Sudeste 0 1017.4 -- 53
2020-10-28 16:00:00 21.6 12 Sur 21 Sur 0 1017.1 -- 53
2020-10-28 15:00:00 23.7 10 Sur 24 Este 0 1016.8 -- 42
2020-10-28 14:00:00 23.1 15 Este 24 Norte 0 1016.9 -- 39
2020-10-28 13:00:00 23.2 15 Este 24 Este 0 1017.4 -- 38
2020-10-28 12:00:00 23 8 Nordeste 17 Este 0 1017.8 -- 37
2020-10-28 11:00:00 21.8 11 Oeste 24 Noroeste 0 1017.8 -- 39
2020-10-28 10:00:00 20 18 Noroeste 26 Noroeste 0 1017.8 -- 45
2020-10-28 09:00:00 18 17 Noroeste 33 Noroeste 0 1017.3 -- 50
2020-10-28 08:00:00 15.8 21 Noroeste 33 Noroeste 0 1016.5 -- 55
2020-10-28 07:00:00 15.6 22 Noroeste 35 Noroeste 0 1015.6 -- 56
2020-10-28 06:00:00 15.9 24 Noroeste 39 Noroeste 0 1015.2 -- 53
2020-10-28 05:00:00 16 25 Noroeste 32 Noroeste 0 1015 -- 52
2020-10-28 04:00:00 16.2 21 Noroeste 26 Noroeste 0 1014.9 -- 49
2020-10-28 03:00:00 15.9 10 Oeste 22 Oeste 0 1015.1 -- 48
2020-10-28 02:00:00 16 18 Oeste 32 Noroeste 0 1015.1 -- 47
2020-10-28 01:00:00 16.7 15 Oeste 33 Noroeste 0 1015.4 -- 42
2020-10-28 00:00:00 16.9 9 Sudoeste 30 Oeste 0 1015.5 -- 38
2020-10-27 23:00:00 17.4 13 Oeste 35 Oeste 0 1015.7 -- 37
2020-10-27 22:00:00 17.7 26 Oeste 46 Oeste 0 1015.3 -- 39
2020-10-27 21:00:00 15.3 10 Oeste 15 Oeste 0 1015.3 -- 60
2020-10-27 20:00:00 16.3 9 Sudoeste 18 Sudoeste 0 1014.9 -- 57
2020-10-27 19:00:00 16.6 9 Sudoeste 18 Sudoeste 0 1014.4 -- 53
2020-10-27 18:00:00 19.6 12 Sudoeste 26 Sudoeste 0 1013.8 -- 29
2020-10-27 17:00:00 20.9 16 Sudoeste 30 Sudoeste 0 1013.6 -- 27
2020-10-27 16:00:00 22.6 14 Oeste 30 Sudoeste 0 1013.8 -- 25
2020-10-27 15:00:00 21.4 17 Sudoeste 28 Sudoeste 0 1014.1 -- 30
2020-10-27 14:00:00 20.3 5 Sudoeste 22 Oeste 0 1015.1 -- 32
2020-10-27 13:00:00 18.3 17 Oeste 30 Oeste 0 1016.2 -- 36
2020-10-27 12:00:00 18.6 16 Oeste 35 Oeste 0 1016.9 -- 36
2020-10-27 11:00:00 16.9 19 Sudoeste 35 Oeste 0 1017.2 -- 40
2020-10-27 10:00:00 16 27 Oeste 41 Oeste 0 1017.2 -- 42
2020-10-27 09:00:00 12.9 17 Oeste 26 Oeste 0 1016.9 -- 51
2020-10-27 08:00:00 12.4 20 Oeste 28 Oeste 0 1016.5 -- 51
2020-10-27 07:00:00 12.6 22 Oeste 42 Oeste 0 1016 -- 51
2020-10-27 06:00:00 12.7 31 Oeste 41 Oeste 0 1015.9 -- 51
2020-10-27 05:00:00 13.6 19 Oeste 42 Oeste 0 1015.9 -- 50
2020-10-27 04:00:00 14 34 Oeste 48 Oeste 0 1015.6 -- 47
2020-10-27 03:00:00 13.9 13 Noroeste 26 Oeste 0 1016.1 -- 46
2020-10-27 02:00:00 14.4 13 Noroeste 30 Oeste 0 1016.3 -- 44
2020-10-27 01:00:00 14.3 19 Oeste 42 Noroeste 0 1016.4 -- 44
2020-10-27 00:00:00 14.4 22 Oeste 35 Oeste 0 1016.3 -- 43
2020-10-26 23:00:00 14.9 13 Oeste 32 Sudoeste 0 1016.6 -- 41
2020-10-26 22:00:00 15.7 14 Oeste 41 Noroeste 0 1016.1 -- 38
2020-10-26 21:00:00 15.6 21 Noroeste 28 Noroeste 0 1015.3 -- 39
2020-10-26 20:00:00 16.5 20 Oeste 54 Noroeste 0 1015.6 -- 38
2020-10-26 19:00:00 16.9 31 Oeste 46 Noroeste 0 1014.9 -- 37
2020-10-26 18:00:00 17.9 29 Oeste 52 Noroeste 0 1014 -- 34
2020-10-26 17:00:00 19.1 32 Oeste 52 Oeste 0 1013.1 -- 32
2020-10-26 16:00:00 19.7 35 Oeste 54 Oeste 0 1012.5 -- 31
2020-10-26 15:00:00 20 32 Oeste 59 Oeste 0 1011.9 -- 30
2020-10-26 14:00:00 20 46 Oeste 65 Noroeste 0 1011.4 -- 32
2020-10-26 13:00:00 19.6 40 Oeste 61 Noroeste 0 1012.3 -- 33
2020-10-26 12:00:00 18.9 38 Noroeste 63 Noroeste 0 1012.6 -- 37
2020-10-26 11:00:00 17.8 41 Noroeste 55 Oeste 0 1012.3 -- 41
2020-10-26 10:00:00 16.9 31 Oeste 52 Noroeste 0 1012.5 -- 46
2020-10-26 09:00:00 15.2 30 Noroeste 54 Noroeste 0 1011.6 -- 53
2020-10-26 08:00:00 16.1 31 Noroeste 55 Noroeste 0 1010.4 -- 51
2020-10-26 07:00:00 17.9 30 Oeste 45 Oeste 0 1009.1 -- 44
2020-10-26 06:00:00 17.6 18 Oeste 32 Oeste 0 1008.8 -- 52
2020-10-26 05:00:00 17.2 16 Oeste 39 Noroeste 0 1008.8 -- 62
2020-10-26 04:00:00 17.6 29 Noroeste 45 Noroeste 0 1008.3 -- 64
2020-10-26 03:00:00 15.9 15 Oeste 28 Oeste 0 1007.6 -- 59
2020-10-26 02:00:00 15.7 13 Sudoeste 18 Sudoeste 0 1007.5 -- 60
2020-10-26 01:00:00 16.9 13 Oeste 21 Oeste 0 1008.2 -- 54
2020-10-26 00:00:00 15.3 9 Sudoeste 22 Sudoeste 0 1008.9 -- 65
2020-10-25 23:00:00 14.7 9 Oeste 13 Oeste 0 1009.3 -- 77
2020-10-25 22:00:00 14.8 10 Oeste 13 Oeste 0 1009.6 -- 81
2020-10-25 21:00:00 15.1 5 Oeste 11 Norte 0 1009.9 -- 83
2020-10-25 20:00:00 16.6 5 Oeste 11 Sudoeste 0 1010.3 -- 83
2020-10-25 19:00:00 18.6 8 Sudoeste 28 Sur 0 1010.4 -- 79
2020-10-25 18:00:00 20 15 Sur 30 Sur 0 1010.1 -- 69
2020-10-25 17:00:00 21.3 18 Sur 32 Sur 0 1010.5 -- 64
2020-10-25 16:00:00 22.1 21 Sur 32 Sur 0 1011.1 -- 51
2020-10-25 15:00:00 22.4 18 Sur 30 Sur 0 1011.6 -- 45
2020-10-25 14:00:00 22.8 14 Sur 24 Sur 0 1012.6 -- 46
2020-10-25 13:00:00 23.8 13 Sur 24 Sur 0 1013.7 -- 34
2020-10-25 12:00:00 22.5 11 Sudoeste 18 Sudoeste 0 1014.8 -- 38
2020-10-25 11:00:00 21.5 13 Oeste 24 Oeste 0 1015.5 -- 41
2020-10-25 10:00:00 20.2 17 Oeste 28 Oeste 0 1016.2 -- 46
2020-10-25 09:00:00 18.7 9 Sudoeste 18 Oeste 0 1016.2 -- 49
2020-10-25 08:00:00 13 14 Oeste 22 Oeste 0 1015.8 -- 68
2020-10-25 07:00:00 10.8 9 Sudoeste 17 Sudoeste 0 1015.8 -- 77
2020-10-25 06:00:00 14.2 14 Oeste 26 Oeste 0 1015.9 -- 62
2020-10-25 05:00:00 17.3 20 Oeste 33 Noroeste 0 1015.8 -- 54
2020-10-25 04:00:00 17.1 23 Oeste 35 Noroeste 0 1016 -- 55
2020-10-25 03:00:00 15.9 14 Oeste 26 Oeste 0 1016.8 -- 57
2020-10-25 02:00:00 15.5 17 Noroeste 22 Noroeste 0 1017.3 -- 60
2020-10-25 01:00:00 15.3 12 Oeste 15 Oeste 0 1018.3 -- 69
2020-10-25 00:00:00 13.9 8 Oeste 15 Oeste 0 1018.7 -- 82